createdAt,value
2023-01-12T00:02:23.636Z,21.30
2023-01-12T00:04:52.406Z,21.20
2023-01-12T00:07:21.540Z,21.30
2023-01-12T00:09:50.303Z,21.20
2023-01-12T00:12:18.982Z,21.30
2023-01-12T00:14:47.782Z,21.30
2023-01-12T00:17:18.372Z,21.30
2023-01-12T00:19:47.149Z,21.30
2023-01-12T00:22:15.858Z,21.30
2023-01-12T00:24:47.006Z,21.30
2023-01-12T00:27:18.065Z,21.30
2023-01-12T00:29:46.810Z,21.20
2023-01-12T00:32:19.243Z,21.20
2023-01-12T00:34:48.378Z,21.30
2023-01-12T00:37:17.195Z,21.30
2023-01-12T00:39:57.002Z,21.40
2023-01-12T00:42:49.990Z,21.40
2023-01-12T00:45:26.339Z,21.50
2023-01-12T00:47:55.454Z,21.50
2023-01-12T00:50:24.327Z,21.40
2023-01-12T00:52:53.200Z,21.40
2023-01-12T00:55:21.963Z,21.50
2023-01-12T00:57:50.685Z,21.50
2023-01-12T01:00:19.605Z,21.50
2023-01-12T01:02:48.556Z,21.50
2023-01-12T01:05:18.771Z,21.50
2023-01-12T01:07:48.380Z,21.50
2023-01-12T01:10:18.143Z,21.50
2023-01-12T01:12:46.999Z,21.50
2023-01-12T01:15:15.728Z,21.60
2023-01-12T01:17:44.381Z,21.60
2023-01-12T01:20:13.780Z,21.60
2023-01-12T01:22:42.560Z,21.60
2023-01-12T01:25:11.855Z,21.60
2023-01-12T01:27:40.724Z,21.60
2023-01-12T01:30:10.253Z,21.60
2023-01-12T01:32:39.013Z,21.60
2023-01-12T01:35:08.075Z,21.60
2023-01-12T01:37:36.809Z,21.60
2023-01-12T01:40:05.791Z,21.60
2023-01-12T01:42:34.840Z,21.70
2023-01-12T01:45:05.269Z,21.70
2023-01-12T01:47:41.051Z,21.80
2023-01-12T01:50:21.835Z,21.80
2023-01-12T01:52:57.262Z,21.90
2023-01-12T01:55:31.170Z,21.90
2023-01-12T01:58:05.865Z,21.90
2023-01-12T02:00:34.730Z,22.00
2023-01-12T02:03:06.273Z,22.00
2023-01-12T02:05:35.257Z,22.00
2023-01-12T02:08:11.582Z,22.00
2023-01-12T02:10:40.769Z,22.10
2023-01-12T02:13:29.182Z,22.10
2023-01-12T02:16:24.228Z,22.10
2023-01-12T02:19:14.834Z,22.10
2023-01-12T02:22:01.379Z,22.10
2023-01-12T02:24:40.931Z,22.10
2023-01-12T02:27:31.011Z,22.10
2023-01-12T02:30:23.259Z,22.20
2023-01-12T02:33:15.548Z,22.20
2023-01-12T02:35:51.393Z,22.20
2023-01-12T02:38:22.039Z,22.20
2023-01-12T02:40:53.733Z,22.20
2023-01-12T02:43:36.856Z,22.30
2023-01-12T02:46:15.627Z,22.30
2023-01-12T02:49:09.583Z,22.30
2023-01-12T02:51:43.941Z,22.30
2023-01-12T02:54:15.960Z,22.40
2023-01-12T02:56:49.351Z,22.40
2023-01-12T02:59:29.315Z,22.40
2023-01-12T03:02:04.129Z,22.50
2023-01-12T03:04:35.153Z,22.50
2023-01-12T03:07:05.603Z,22.60
2023-01-12T03:09:40.476Z,22.60
2023-01-12T03:12:16.006Z,22.60
2023-01-12T03:14:50.525Z,22.60
2023-01-12T03:17:28.158Z,22.60
2023-01-12T03:20:04.874Z,22.60
2023-01-12T03:22:38.322Z,22.60
2023-01-12T03:25:13.545Z,22.60
2023-01-12T03:27:48.763Z,22.60
2023-01-12T03:30:24.601Z,22.60
2023-01-12T03:32:54.482Z,22.70
2023-01-12T03:35:29.344Z,22.70
2023-01-12T03:38:06.107Z,22.80
2023-01-12T03:40:44.094Z,22.80
2023-01-12T03:43:15.157Z,22.80
2023-01-12T03:45:59.660Z,22.90
2023-01-12T03:48:53.575Z,22.90
2023-01-12T03:51:29.156Z,22.90
2023-01-12T03:53:58.956Z,22.90
2023-01-12T03:56:31.007Z,22.90
2023-01-12T03:59:00.322Z,23.00
2023-01-12T04:01:29.202Z,23.00
2023-01-12T04:03:58.103Z,23.10
2023-01-12T04:06:26.887Z,23.10
2023-01-12T04:08:55.597Z,23.20
2023-01-12T04:11:44.000Z,23.20
2023-01-12T04:14:12.695Z,23.30
2023-01-12T04:16:41.438Z,23.30
2023-01-12T04:19:10.291Z,23.40
2023-01-12T04:21:58.623Z,23.40
2023-01-12T04:24:27.471Z,23.30
2023-01-12T04:26:56.202Z,23.30
2023-01-12T04:29:24.920Z,23.30
2023-01-12T04:31:53.835Z,23.30
2023-01-12T04:34:22.561Z,23.30
2023-01-12T04:36:51.406Z,23.30
2023-01-12T04:39:20.187Z,23.30
2023-01-12T04:41:48.934Z,23.30
2023-01-12T04:44:17.776Z,23.30
2023-01-12T04:46:46.652Z,23.30
2023-01-12T04:49:15.422Z,23.30
2023-01-12T04:51:44.289Z,23.30
2023-01-12T04:54:13.437Z,23.30
2023-01-12T04:56:42.107Z,23.30
2023-01-12T04:59:11.706Z,23.30
2023-01-12T05:01:40.630Z,23.30
2023-01-12T05:04:09.678Z,23.30
2023-01-12T05:06:40.546Z,23.30
2023-01-12T05:09:30.208Z,23.30
2023-01-12T05:12:01.384Z,23.40
2023-01-12T05:14:30.370Z,23.40
2023-01-12T05:17:00.487Z,23.40
2023-01-12T05:19:29.163Z,23.40
2023-01-12T05:21:58.080Z,23.40
2023-01-12T05:24:29.815Z,23.50
2023-01-12T05:26:58.475Z,23.50
2023-01-12T05:29:27.191Z,23.60
2023-01-12T05:31:55.987Z,23.60
2023-01-12T05:34:24.658Z,23.60
2023-01-12T05:36:53.437Z,23.60
2023-01-12T05:39:22.975Z,23.60
2023-01-12T05:42:11.299Z,23.60
2023-01-12T05:44:40.198Z,23.60
2023-01-12T05:47:08.951Z,23.70
2023-01-12T05:49:37.746Z,23.70
2023-01-12T05:52:06.741Z,23.80
2023-01-12T05:54:35.442Z,23.80
2023-01-12T05:57:04.283Z,23.80
2023-01-12T05:59:32.991Z,23.90
2023-01-12T06:02:01.778Z,23.90
2023-01-12T06:04:30.544Z,23.90
2023-01-12T06:06:59.292Z,24.00
2023-01-12T06:09:27.983Z,24.00
2023-01-12T06:12:16.273Z,24.10
2023-01-12T06:14:44.913Z,24.10
2023-01-12T06:17:13.719Z,24.10
2023-01-12T06:19:42.515Z,24.10
2023-01-12T06:22:11.515Z,24.10
2023-01-12T06:24:40.380Z,24.10
2023-01-12T06:27:09.462Z,24.10
2023-01-12T06:29:38.208Z,24.10
2023-01-12T06:32:06.978Z,24.10
2023-01-12T06:34:36.604Z,24.10
2023-01-12T06:37:08.183Z,24.10
2023-01-12T06:39:36.911Z,24.10
2023-01-12T06:42:26.422Z,24.10
2023-01-12T06:44:55.320Z,24.10
2023-01-12T06:47:24.222Z,24.10
2023-01-12T06:49:53.470Z,24.10
2023-01-12T06:52:25.675Z,24.10
2023-01-12T06:54:55.342Z,24.10
2023-01-12T06:57:24.004Z,24.10
2023-01-12T06:59:53.052Z,24.10
2023-01-12T07:02:21.949Z,24.10
2023-01-12T07:04:50.698Z,24.10
2023-01-12T07:07:19.423Z,24.10
2023-01-12T07:09:48.278Z,24.10
2023-01-12T07:12:16.975Z,24.10
2023-01-12T07:14:45.745Z,24.10
2023-01-12T07:17:14.571Z,24.10
2023-01-12T07:19:44.314Z,24.20
2023-01-12T07:22:12.963Z,24.20
2023-01-12T07:24:41.836Z,24.20
2023-01-12T07:27:10.561Z,24.20
2023-01-12T07:29:39.301Z,24.20
2023-01-12T07:32:08.408Z,24.30
2023-01-12T07:34:37.132Z,24.30
2023-01-12T07:37:06.021Z,24.40
2023-01-12T07:39:34.719Z,24.40
2023-01-12T07:42:23.266Z,24.50
2023-01-12T07:44:52.039Z,24.50
2023-01-12T07:47:21.018Z,24.60
2023-01-12T07:49:49.851Z,24.60
2023-01-12T07:52:18.807Z,24.60
2023-01-12T07:54:47.552Z,24.60
2023-01-12T07:57:16.346Z,24.60
2023-01-12T07:59:45.106Z,24.60
2023-01-12T08:02:17.667Z,24.60
2023-01-12T08:04:47.545Z,24.70
2023-01-12T08:07:16.597Z,24.60
2023-01-12T08:09:45.464Z,24.70
2023-01-12T08:12:14.290Z,24.70
2023-01-12T08:14:43.754Z,24.80
2023-01-12T08:17:18.831Z,24.70
2023-01-12T08:19:56.863Z,24.70
2023-01-12T08:22:33.712Z,24.70
2023-01-12T08:25:08.465Z,24.70
2023-01-12T08:27:40.955Z,24.70
2023-01-12T08:30:10.552Z,24.80
2023-01-12T08:32:40.031Z,24.80
2023-01-12T08:35:10.352Z,24.80
2023-01-12T08:37:39.141Z,24.80
2023-01-12T08:40:08.693Z,24.80
2023-01-12T08:42:37.728Z,24.80
2023-01-12T08:45:09.261Z,24.80
2023-01-12T08:47:38.990Z,24.80
2023-01-12T08:50:09.896Z,24.80
2023-01-12T08:52:38.825Z,24.80
2023-01-12T08:55:08.104Z,24.90
2023-01-12T08:57:36.795Z,24.80
2023-01-12T09:00:07.515Z,24.90
2023-01-12T09:02:36.448Z,24.80
2023-01-12T09:05:05.449Z,24.80
2023-01-12T09:07:34.937Z,24.80
2023-01-12T09:10:03.649Z,24.80
2023-01-12T09:12:32.456Z,24.80
2023-01-12T09:15:01.285Z,24.80
2023-01-12T09:17:30.135Z,24.80
2023-01-12T09:19:59.224Z,24.80
2023-01-12T09:22:29.993Z,24.80
2023-01-12T09:24:58.698Z,24.80
2023-01-12T09:27:27.500Z,24.80
2023-01-12T09:29:56.155Z,24.90
2023-01-12T09:32:29.152Z,24.80
2023-01-12T09:35:04.953Z,24.90
2023-01-12T09:37:33.824Z,24.90
2023-01-12T09:40:04.659Z,24.90
2023-01-12T09:42:52.943Z,24.90
2023-01-12T09:45:44.392Z,24.90
2023-01-12T09:48:15.216Z,24.90
2023-01-12T09:50:55.778Z,24.90
2023-01-12T09:53:32.169Z,24.90
2023-01-12T09:56:16.373Z,24.90
2023-01-12T09:59:12.679Z,24.90
2023-01-12T10:01:41.740Z,24.90
2023-01-12T10:04:10.524Z,24.80
2023-01-12T10:06:39.290Z,24.80
2023-01-12T10:09:15.063Z,24.80
2023-01-12T10:11:59.236Z,24.80
2023-01-12T10:14:36.988Z,24.80
2023-01-12T10:17:15.088Z,24.80
2023-01-12T10:19:51.671Z,24.80
2023-01-12T10:22:39.897Z,24.80
2023-01-12T10:25:17.174Z,24.80
2023-01-12T10:27:49.355Z,24.70
2023-01-12T10:30:26.269Z,24.80
2023-01-12T10:32:55.004Z,24.80
2023-01-12T10:35:25.491Z,24.70
2023-01-12T10:37:57.686Z,24.70
2023-01-12T10:40:35.946Z,24.70
2023-01-12T10:43:25.888Z,24.70
2023-01-12T10:46:15.031Z,24.70
2023-01-12T10:48:47.031Z,24.60
2023-01-12T10:51:28.345Z,24.70
2023-01-12T10:54:03.946Z,24.60
2023-01-12T10:56:37.536Z,24.60
2023-01-12T10:59:20.571Z,24.50
2023-01-12T11:01:53.786Z,24.50
2023-01-12T11:04:27.002Z,24.40
2023-01-12T11:07:05.578Z,24.40
2023-01-12T11:09:34.334Z,24.30
2023-01-12T11:12:06.294Z,24.20
2023-01-12T11:14:40.031Z,24.10
2023-01-12T11:17:25.775Z,24.00
2023-01-12T11:19:56.616Z,23.90
2023-01-12T11:22:32.877Z,23.80
2023-01-12T11:25:16.063Z,23.80
2023-01-12T11:27:52.513Z,23.80
2023-01-12T11:30:33.742Z,23.90
2023-01-12T11:33:24.406Z,23.90
2023-01-12T11:36:10.553Z,23.90
2023-01-12T11:38:43.911Z,23.90
2023-01-12T11:41:23.726Z,23.80
2023-01-12T11:43:58.325Z,23.80
2023-01-12T11:46:36.916Z,23.70
2023-01-12T11:49:13.175Z,23.70
2023-01-12T11:51:43.108Z,23.60
2023-01-12T11:54:18.023Z,23.50
2023-01-12T11:57:25.941Z,23.50
2023-01-12T12:00:21.644Z,23.50
2023-01-12T12:03:17.922Z,23.40
2023-01-12T12:06:25.935Z,23.40
2023-01-12T12:09:16.545Z,23.40
2023-01-12T12:11:57.532Z,23.40
2023-01-12T12:14:47.393Z,23.40
2023-01-12T12:17:20.751Z,23.40
2023-01-12T12:20:31.477Z,23.30
2023-01-12T12:23:20.371Z,23.30
2023-01-12T12:26:09.898Z,23.30
2023-01-12T12:28:48.117Z,23.30
2023-01-12T12:31:24.761Z,23.30
2023-01-12T12:34:19.420Z,23.30
2023-01-12T12:36:58.976Z,23.30
2023-01-12T12:39:37.399Z,23.20
2023-01-12T12:42:45.934Z,23.20
2023-01-12T12:45:36.006Z,23.10
2023-01-12T12:48:15.672Z,23.10
2023-01-12T12:51:08.101Z,23.10
2023-01-12T12:53:53.511Z,23.10
2023-01-12T12:56:26.325Z,23.10
2023-01-12T12:58:57.629Z,23.10
2023-01-12T13:01:28.552Z,23.10
2023-01-12T13:04:00.724Z,23.10
2023-01-12T13:06:32.079Z,23.10
2023-01-12T13:09:04.578Z,23.10
2023-01-12T13:12:01.660Z,23.10
2023-01-12T13:14:35.823Z,23.00
2023-01-12T13:17:28.254Z,23.00
2023-01-12T13:20:16.847Z,23.00
2023-01-12T13:22:53.798Z,23.00
2023-01-12T13:25:24.870Z,22.90
2023-01-12T13:28:19.580Z,22.90
2023-01-12T13:30:54.071Z,22.90
2023-01-12T13:33:28.150Z,22.90
2023-01-12T13:36:03.871Z,23.00
2023-01-12T13:38:35.227Z,22.90
2023-01-12T13:41:51.971Z,23.00
2023-01-12T13:44:30.828Z,22.90
2023-01-12T13:47:27.859Z,22.90
2023-01-12T13:50:01.393Z,22.90
2023-01-12T13:52:33.363Z,22.90
2023-01-12T13:55:03.723Z,22.90
2023-01-12T13:57:33.580Z,22.90
2023-01-12T14:00:10.187Z,22.90
2023-01-12T14:02:41.412Z,22.90
2023-01-12T14:05:30.592Z,22.90
2023-01-12T14:08:15.856Z,22.90
2023-01-12T14:10:57.357Z,22.90
2023-01-12T14:13:55.623Z,22.80
2023-01-12T14:17:05.277Z,22.80
2023-01-12T14:19:34.064Z,22.70
2023-01-12T14:22:05.839Z,22.70
2023-01-12T14:24:35.069Z,22.80
2023-01-12T14:27:28.415Z,22.70
2023-01-12T14:29:57.402Z,22.70
2023-01-12T14:32:26.965Z,22.70
2023-01-12T14:34:55.967Z,22.70
2023-01-12T14:37:31.414Z,22.60
2023-01-12T14:40:00.799Z,22.60
2023-01-12T14:42:49.365Z,22.70
2023-01-12T14:45:46.609Z,22.60
2023-01-12T14:48:35.615Z,22.60
2023-01-12T14:51:19.640Z,22.60
2023-01-12T14:53:49.901Z,22.60
2023-01-12T14:56:25.493Z,22.60
2023-01-12T14:58:55.411Z,22.60
2023-01-12T15:01:36.394Z,22.60
2023-01-12T15:04:08.243Z,22.60
2023-01-12T15:06:42.795Z,22.60
2023-01-12T15:09:28.965Z,22.60
2023-01-12T15:11:58.238Z,22.60
2023-01-12T15:14:30.314Z,22.60
2023-01-12T15:17:18.906Z,22.60
2023-01-12T15:20:07.335Z,22.60
2023-01-12T15:22:55.857Z,22.60
2023-01-12T15:25:37.154Z,22.60
2023-01-12T15:28:08.251Z,22.60
2023-01-12T15:30:39.831Z,22.60
2023-01-12T15:33:10.966Z,22.50
2023-01-12T15:35:44.907Z,22.60
2023-01-12T15:38:15.222Z,22.50
2023-01-12T15:40:44.717Z,22.50
2023-01-12T15:43:21.519Z,22.50
2023-01-12T15:45:50.678Z,22.50
2023-01-12T15:48:19.531Z,22.50
2023-01-12T15:50:48.593Z,22.50
2023-01-12T15:53:21.290Z,22.50
2023-01-12T15:55:50.717Z,22.50
2023-01-12T15:58:20.688Z,22.50
2023-01-12T16:00:49.513Z,22.40
2023-01-12T16:03:54.682Z,22.40
2023-01-12T16:06:13.001Z,22.40
2023-01-12T16:08:41.812Z,22.40
2023-01-12T16:11:25.499Z,22.40
2023-01-12T16:13:54.310Z,22.40
2023-01-12T16:16:23.135Z,22.40
2023-01-12T16:18:52.061Z,22.30
2023-01-12T16:21:23.815Z,22.30
2023-01-12T16:23:52.830Z,22.30
2023-01-12T16:26:21.622Z,22.30
2023-01-12T16:28:59.564Z,22.30
2023-01-12T16:31:32.675Z,22.30
2023-01-12T16:34:01.116Z,22.30
2023-01-12T16:36:29.985Z,22.30
2023-01-12T16:39:00.009Z,22.30
2023-01-12T16:41:28.960Z,22.30
2023-01-12T16:44:00.287Z,22.30
2023-01-12T16:46:29.106Z,22.30
2023-01-12T16:48:59.748Z,22.30
2023-01-12T16:51:28.637Z,22.30
2023-01-12T16:54:00.472Z,22.30
2023-01-12T16:56:29.625Z,22.20
2023-01-12T16:58:59.227Z,22.20
2023-01-12T17:01:29.694Z,22.20
2023-01-12T17:03:59.308Z,22.20
2023-01-12T17:06:29.626Z,22.20
2023-01-12T17:09:01.610Z,22.20
2023-01-12T17:11:31.927Z,22.20
2023-01-12T17:14:02.645Z,22.20
2023-01-12T17:16:31.849Z,22.20
2023-01-12T17:19:00.637Z,22.20
2023-01-12T17:21:29.487Z,22.20
2023-01-12T17:23:58.782Z,22.20
2023-01-12T17:26:27.626Z,22.20
2023-01-12T17:28:57.185Z,22.20
2023-01-12T17:31:26.064Z,22.20
2023-01-12T17:33:55.260Z,22.20
2023-01-12T17:36:24.105Z,22.20
2023-01-12T17:38:52.902Z,22.20
2023-01-12T17:41:41.303Z,22.20
2023-01-12T17:44:10.605Z,22.20
2023-01-12T17:46:39.590Z,22.20
2023-01-12T17:49:10.203Z,22.20
2023-01-12T17:51:40.118Z,22.20
2023-01-12T17:54:12.361Z,22.20
2023-01-12T17:56:41.319Z,22.20
2023-01-12T17:59:16.000Z,22.20
2023-01-12T18:01:45.357Z,22.20
2023-01-12T18:04:14.829Z,22.10
2023-01-12T18:06:44.010Z,22.10
2023-01-12T18:09:13.403Z,22.10
2023-01-12T18:11:42.543Z,22.00
2023-01-12T18:14:12.037Z,22.00
2023-01-12T18:16:41.313Z,21.90
2023-01-12T18:19:11.404Z,21.90
2023-01-12T18:21:40.322Z,21.90
2023-01-12T18:24:09.164Z,21.90
2023-01-12T18:26:39.431Z,21.90
2023-01-12T18:29:11.130Z,21.80
2023-01-12T18:31:42.597Z,21.80
2023-01-12T18:34:12.684Z,21.80
2023-01-12T18:36:42.701Z,21.80
2023-01-12T18:39:17.337Z,21.80
2023-01-12T18:42:06.540Z,21.80
2023-01-12T18:44:36.488Z,21.70
2023-01-12T18:47:25.135Z,21.70
2023-01-12T18:49:58.595Z,21.70
2023-01-12T18:52:47.043Z,21.70
2023-01-12T18:55:15.808Z,21.70
2023-01-12T18:57:44.724Z,21.60
2023-01-12T19:00:18.380Z,21.60
2023-01-12T19:02:48.014Z,21.60
2023-01-12T19:05:21.246Z,21.60
2023-01-12T19:08:09.683Z,21.60
2023-01-12T19:10:38.561Z,21.70
2023-01-12T19:13:26.953Z,21.70
2023-01-12T19:16:15.464Z,21.70
2023-01-12T19:18:44.253Z,21.70
2023-01-12T19:21:32.899Z,21.70
2023-01-12T19:24:21.169Z,21.70
2023-01-12T19:27:09.648Z,21.70
2023-01-12T19:29:40.535Z,21.70
2023-01-12T19:32:10.142Z,21.70
2023-01-12T19:34:38.945Z,21.70
2023-01-12T19:37:08.106Z,21.70
2023-01-12T19:40:00.274Z,21.70
2023-01-12T19:42:52.563Z,21.70
2023-01-12T19:45:21.615Z,21.60
2023-01-12T19:47:51.184Z,21.60
2023-01-12T19:50:20.091Z,21.60
2023-01-12T19:52:48.869Z,21.60
2023-01-12T19:55:17.758Z,21.50
2023-01-12T19:57:46.380Z,21.50
2023-01-12T20:00:17.025Z,21.50
2023-01-12T20:02:46.559Z,21.50
2023-01-12T20:05:22.942Z,21.40
2023-01-12T20:07:54.103Z,21.40
2023-01-12T20:10:23.924Z,21.30
2023-01-12T20:12:53.413Z,21.30
2023-01-12T20:15:22.478Z,21.30
2023-01-12T20:17:51.669Z,21.30
2023-01-12T20:20:20.745Z,21.30
2023-01-12T20:22:51.703Z,21.30
2023-01-12T20:25:22.030Z,21.40
2023-01-12T20:27:51.798Z,21.40
2023-01-12T20:30:36.546Z,21.40
2023-01-12T20:33:07.645Z,21.50
2023-01-12T20:35:37.013Z,21.50
2023-01-12T20:38:07.769Z,21.50
2023-01-12T20:40:36.442Z,21.50
2023-01-12T20:43:05.166Z,21.50
2023-01-12T20:45:34.248Z,21.50
2023-01-12T20:48:02.952Z,21.50
2023-01-12T20:50:31.678Z,21.50
2023-01-12T20:53:00.675Z,21.50
2023-01-12T20:55:29.355Z,21.50
2023-01-12T20:57:58.099Z,21.50
2023-01-12T21:00:27.638Z,21.50
2023-01-12T21:02:56.382Z,21.60
2023-01-12T21:05:25.128Z,21.60
2023-01-12T21:07:59.998Z,21.60
2023-01-12T21:10:35.786Z,21.50
2023-01-12T21:13:04.386Z,21.50
2023-01-12T21:15:33.200Z,21.50
2023-01-12T21:18:01.961Z,21.50
2023-01-12T21:20:30.691Z,21.50
2023-01-12T21:22:59.389Z,21.50
2023-01-12T21:25:29.865Z,21.50
2023-01-12T21:27:58.496Z,21.40
2023-01-12T21:30:27.283Z,21.50
2023-01-12T21:32:57.623Z,21.50
2023-01-12T21:35:27.403Z,21.50
2023-01-12T21:37:56.161Z,21.50
2023-01-12T21:40:24.884Z,21.50
2023-01-12T21:43:13.243Z,21.50
2023-01-12T21:45:45.215Z,21.40
2023-01-12T21:48:15.302Z,21.40
2023-01-12T21:50:44.664Z,21.40
2023-01-12T21:53:19.930Z,21.40
2023-01-12T21:55:57.807Z,21.30
2023-01-12T21:58:27.953Z,21.30
